sensor_id;sensor_type;location;lat;lon;timestamp;temperature;humidity
41924;DHT22;27613;48.116;11.656;2022-08-01T00:01:50;21.00;80.30
41924;DHT22;27613;48.116;11.656;2022-08-01T00:04:15;21.00;80.10
41924;DHT22;27613;48.116;11.656;2022-08-01T00:06:41;21.00;80.10
41924;DHT22;27613;48.116;11.656;2022-08-01T00:09:07;21.00;80.00
41924;DHT22;27613;48.116;11.656;2022-08-01T00:11:32;21.00;80.30
41924;DHT22;27613;48.116;11.656;2022-08-01T00:13:58;21.00;80.30
41924;DHT22;27613;48.116;11.656;2022-08-01T00:16:23;21.10;79.80
41924;DHT22;27613;48.116;11.656;2022-08-01T00:18:50;21.00;80.00
41924;DHT22;27613;48.116;11.656;2022-08-01T00:21:17;21.10;79.80
41924;DHT22;27613;48.116;11.656;2022-08-01T00:23:43;21.10;80.00
41924;DHT22;27613;48.116;11.656;2022-08-01T00:26:11;21.10;79.90
41924;DHT22;27613;48.116;11.656;2022-08-01T00:28:37;21.20;80.00
41924;DHT22;27613;48.116;11.656;2022-08-01T00:31:03;21.20;79.60
41924;DHT22;27613;48.116;11.656;2022-08-01T00:33:28;21.10;79.70
41924;DHT22;27613;48.116;11.656;2022-08-01T00:35:54;21.10;79.90
41924;DHT22;27613;48.116;11.656;2022-08-01T00:38:20;21.10;80.30
41924;DHT22;27613;48.116;11.656;2022-08-01T00:40:45;21.00;79.90
41924;DHT22;27613;48.116;11.656;2022-08-01T00:43:11;21.00;80.50
41924;DHT22;27613;48.116;11.656;2022-08-01T00:45:37;20.90;80.50
41924;DHT22;27613;48.116;11.656;2022-08-01T00:48:02;20.80;80.80
41924;DHT22;27613;48.116;11.656;2022-08-01T00:50:28;20.80;81.00
41924;DHT22;27613;48.116;11.656;2022-08-01T00:52:55;20.80;81.40
41924;DHT22;27613;48.116;11.656;2022-08-01T00:55:21;20.70;81.50
41924;DHT22;27613;48.116;11.656;2022-08-01T00:57:47;20.60;81.20
41924;DHT22;27613;48.116;11.656;2022-08-01T01:00:14;20.60;81.40
41924;DHT22;27613;48.116;11.656;2022-08-01T01:02:39;20.60;81.20
41924;DHT22;27613;48.116;11.656;2022-08-01T01:05:05;20.50;81.40
41924;DHT22;27613;48.116;11.656;2022-08-01T01:07:45;20.50;81.60
41924;DHT22;27613;48.116;11.656;2022-08-01T01:10:17;20.40;81.50
41924;DHT22;27613;48.116;11.656;2022-08-01T01:12:54;20.50;80.90
41924;DHT22;27613;48.116;11.656;2022-08-01T01:15:34;20.50;80.80
41924;DHT22;27613;48.116;11.656;2022-08-01T01:32:02;20.40;81.70
41924;DHT22;27613;48.116;11.656;2022-08-01T01:34:29;20.70;81.30
41924;DHT22;27613;48.116;11.656;2022-08-01T01:36:56;20.50;80.40
41924;DHT22;27613;48.116;11.656;2022-08-01T01:39:25;20.60;79.70
41924;DHT22;27613;48.116;11.656;2022-08-01T01:41:53;20.40;79.90
41924;DHT22;27613;48.116;11.656;2022-08-01T01:44:19;20.40;80.50
41924;DHT22;27613;48.116;11.656;2022-08-01T01:46:46;20.20;80.40
41924;DHT22;27613;48.116;11.656;2022-08-01T01:49:12;20.20;80.50
41924;DHT22;27613;48.116;11.656;2022-08-01T01:51:41;20.20;80.50
41924;DHT22;27613;48.116;11.656;2022-08-01T01:54:08;20.20;80.90
41924;DHT22;27613;48.116;11.656;2022-08-01T01:56:35;20.20;81.00
41924;DHT22;27613;48.116;11.656;2022-08-01T01:59:18;20.20;80.70
41924;DHT22;27613;48.116;11.656;2022-08-01T02:01:49;20.20;80.80
41924;DHT22;27613;48.116;11.656;2022-08-01T02:04:16;20.20;80.40
41924;DHT22;27613;48.116;11.656;2022-08-01T02:06:45;20.20;80.40
41924;DHT22;27613;48.116;11.656;2022-08-01T02:09:20;20.30;80.50
41924;DHT22;27613;48.116;11.656;2022-08-01T02:11:49;20.30;80.50
41924;DHT22;27613;48.116;11.656;2022-08-01T02:14:18;20.40;80.10
41924;DHT22;27613;48.116;11.656;2022-08-01T02:16:47;20.40;79.80
41924;DHT22;27613;48.116;11.656;2022-08-01T02:19:14;20.30;80.00
41924;DHT22;27613;48.116;11.656;2022-08-01T02:24:27;20.30;80.60
41924;DHT22;27613;48.116;11.656;2022-08-01T02:27:00;20.30;79.70
41924;DHT22;27613;48.116;11.656;2022-08-01T02:29:36;20.30;79.80
41924;DHT22;27613;48.116;11.656;2022-08-01T02:32:04;20.30;80.30
41924;DHT22;27613;48.116;11.656;2022-08-01T02:34:33;20.30;80.50
41924;DHT22;27613;48.116;11.656;2022-08-01T02:37:01;20.30;79.80
41924;DHT22;27613;48.116;11.656;2022-08-01T02:39:30;20.20;79.80
41924;DHT22;27613;48.116;11.656;2022-08-01T02:42:00;20.20;79.90
41924;DHT22;27613;48.116;11.656;2022-08-01T02:44:34;20.10;79.90
41924;DHT22;27613;48.116;11.656;2022-08-01T02:47:01;20.10;79.90
41924;DHT22;27613;48.116;11.656;2022-08-01T02:49:36;20.00;80.10
41924;DHT22;27613;48.116;11.656;2022-08-01T02:52:06;20.00;80.00
41924;DHT22;27613;48.116;11.656;2022-08-01T02:54:34;20.00;79.90
41924;DHT22;27613;48.116;11.656;2022-08-01T02:57:01;20.00;79.90
41924;DHT22;27613;48.116;11.656;2022-08-01T02:59:29;20.00;79.70
41924;DHT22;27613;48.116;11.656;2022-08-01T03:01:57;20.00;80.20
41924;DHT22;27613;48.116;11.656;2022-08-01T03:04:24;19.90;79.80
41924;DHT22;27613;48.116;11.656;2022-08-01T03:06:52;19.90;80.00
41924;DHT22;27613;48.116;11.656;2022-08-01T03:09:18;19.80;80.30
41924;DHT22;27613;48.116;11.656;2022-08-01T03:11:45;20.00;81.30
41924;DHT22;27613;48.116;11.656;2022-08-01T03:14:13;19.80;80.10
41924;DHT22;27613;48.116;11.656;2022-08-01T03:16:41;19.70;80.50
41924;DHT22;27613;48.116;11.656;2022-08-01T03:19:08;19.80;80.80
41924;DHT22;27613;48.116;11.656;2022-08-01T03:21:35;20.00;79.80
41924;DHT22;27613;48.116;11.656;2022-08-01T03:24:04;19.90;80.10
41924;DHT22;27613;48.116;11.656;2022-08-01T03:26:33;19.80;80.60
41924;DHT22;27613;48.116;11.656;2022-08-01T03:29:04;19.80;80.30
41924;DHT22;27613;48.116;11.656;2022-08-01T03:31:37;19.70;80.70
41924;DHT22;27613;48.116;11.656;2022-08-01T03:34:04;19.70;80.80
41924;DHT22;27613;48.116;11.656;2022-08-01T03:36:32;19.70;80.80
41924;DHT22;27613;48.116;11.656;2022-08-01T03:39:02;19.70;81.10
41924;DHT22;27613;48.116;11.656;2022-08-01T03:41:34;19.60;80.80
41924;DHT22;27613;48.116;11.656;2022-08-01T03:44:09;19.70;80.50
41924;DHT22;27613;48.116;11.656;2022-08-01T03:46:43;19.70;80.50
41924;DHT22;27613;48.116;11.656;2022-08-01T03:49:30;19.70;80.30
41924;DHT22;27613;48.116;11.656;2022-08-01T03:51:59;19.70;80.00
41924;DHT22;27613;48.116;11.656;2022-08-01T03:54:37;19.60;80.40
41924;DHT22;27613;48.116;11.656;2022-08-01T03:57:04;19.60;81.10
41924;DHT22;27613;48.116;11.656;2022-08-01T03:59:30;19.60;80.10
41924;DHT22;27613;48.116;11.656;2022-08-01T04:01:57;19.60;80.70
41924;DHT22;27613;48.116;11.656;2022-08-01T04:04:24;19.70;79.70
41924;DHT22;27613;48.116;11.656;2022-08-01T04:06:50;19.80;80.60
41924;DHT22;27613;48.116;11.656;2022-08-01T04:09:19;19.70;79.90
41924;DHT22;27613;48.116;11.656;2022-08-01T04:11:45;19.80;80.00
41924;DHT22;27613;48.116;11.656;2022-08-01T04:14:10;19.70;79.60
41924;DHT22;27613;48.116;11.656;2022-08-01T04:16:37;19.80;80.00
41924;DHT22;27613;48.116;11.656;2022-08-01T04:19:02;19.70;79.90
41924;DHT22;27613;48.116;11.656;2022-08-01T04:21:30;19.70;80.00
41924;DHT22;27613;48.116;11.656;2022-08-01T04:24:08;19.60;79.90
41924;DHT22;27613;48.116;11.656;2022-08-01T04:26:34;19.60;80.10
41924;DHT22;27613;48.116;11.656;2022-08-01T04:29:04;19.60;80.40
41924;DHT22;27613;48.116;11.656;2022-08-01T04:31:31;19.70;79.80
41924;DHT22;27613;48.116;11.656;2022-08-01T04:33:59;19.60;80.30
41924;DHT22;27613;48.116;11.656;2022-08-01T04:36:27;19.70;79.90
41924;DHT22;27613;48.116;11.656;2022-08-01T04:38:58;19.60;80.30
41924;DHT22;27613;48.116;11.656;2022-08-01T04:41:25;19.60;80.30
41924;DHT22;27613;48.116;11.656;2022-08-01T04:43:51;19.60;81.10
41924;DHT22;27613;48.116;11.656;2022-08-01T04:46:20;19.60;80.60
41924;DHT22;27613;48.116;11.656;2022-08-01T04:48:47;19.60;81.00
41924;DHT22;27613;48.116;11.656;2022-08-01T04:51:15;19.70;80.40
41924;DHT22;27613;48.116;11.656;2022-08-01T04:53:42;19.70;80.40
41924;DHT22;27613;48.116;11.656;2022-08-01T04:56:08;19.70;80.20
41924;DHT22;27613;48.116;11.656;2022-08-01T04:58:34;19.70;80.20
41924;DHT22;27613;48.116;11.656;2022-08-01T05:00:59;19.70;80.30
41924;DHT22;27613;48.116;11.656;2022-08-01T05:03:25;19.80;80.10
41924;DHT22;27613;48.116;11.656;2022-08-01T05:05:51;19.80;80.00
41924;DHT22;27613;48.116;11.656;2022-08-01T05:08:16;19.80;79.70
41924;DHT22;27613;48.116;11.656;2022-08-01T05:10:42;19.90;79.50
41924;DHT22;27613;48.116;11.656;2022-08-01T05:13:08;20.00;79.30
41924;DHT22;27613;48.116;11.656;2022-08-01T05:15:37;20.00;79.10
41924;DHT22;27613;48.116;11.656;2022-08-01T05:18:03;20.00;79.50
41924;DHT22;27613;48.116;11.656;2022-08-01T05:20:29;20.10;79.40
41924;DHT22;27613;48.116;11.656;2022-08-01T05:22:54;20.50;80.00
41924;DHT22;27613;48.116;11.656;2022-08-01T05:25:20;20.40;78.80
41924;DHT22;27613;48.116;11.656;2022-08-01T05:27:46;20.40;78.30
41924;DHT22;27613;48.116;11.656;2022-08-01T05:30:12;20.40;78.80
41924;DHT22;27613;48.116;11.656;2022-08-01T05:32:38;20.50;77.80
41924;DHT22;27613;48.116;11.656;2022-08-01T05:35:04;20.50;78.30
41924;DHT22;27613;48.116;11.656;2022-08-01T05:37:30;20.50;78.10
41924;DHT22;27613;48.116;11.656;2022-08-01T05:39:55;20.50;78.00
41924;DHT22;27613;48.116;11.656;2022-08-01T05:42:21;20.60;77.60
41924;DHT22;27613;48.116;11.656;2022-08-01T05:44:46;20.60;78.00
41924;DHT22;27613;48.116;11.656;2022-08-01T05:47:13;20.60;78.00
41924;DHT22;27613;48.116;11.656;2022-08-01T05:49:38;20.60;77.50
41924;DHT22;27613;48.116;11.656;2022-08-01T05:52:04;20.70;77.40
41924;DHT22;27613;48.116;11.656;2022-08-01T05:54:30;20.70;77.70
41924;DHT22;27613;48.116;11.656;2022-08-01T05:56:56;20.90;77.00
41924;DHT22;27613;48.116;11.656;2022-08-01T05:59:25;20.90;77.50
41924;DHT22;27613;48.116;11.656;2022-08-01T06:01:51;21.00;76.60
41924;DHT22;27613;48.116;11.656;2022-08-01T06:04:16;21.10;77.40
41924;DHT22;27613;48.116;11.656;2022-08-01T06:06:42;21.10;77.10
41924;DHT22;27613;48.116;11.656;2022-08-01T06:09:08;21.10;76.30
41924;DHT22;27613;48.116;11.656;2022-08-01T06:11:33;21.00;76.60
41924;DHT22;27613;48.116;11.656;2022-08-01T06:13:59;21.20;77.30
41924;DHT22;27613;48.116;11.656;2022-08-01T06:16:24;21.30;76.10
41924;DHT22;27613;48.116;11.656;2022-08-01T06:18:50;21.10;76.00
41924;DHT22;27613;48.116;11.656;2022-08-01T06:21:15;21.20;76.30
41924;DHT22;27613;48.116;11.656;2022-08-01T06:23:41;21.20;76.30
41924;DHT22;27613;48.116;11.656;2022-08-01T06:26:07;21.20;76.00
41924;DHT22;27613;48.116;11.656;2022-08-01T06:28:33;21.20;75.70
41924;DHT22;27613;48.116;11.656;2022-08-01T06:30:58;21.20;76.00
41924;DHT22;27613;48.116;11.656;2022-08-01T06:33:25;21.40;75.70
41924;DHT22;27613;48.116;11.656;2022-08-01T06:35:50;21.40;75.50
41924;DHT22;27613;48.116;11.656;2022-08-01T06:38:16;21.50;76.00
41924;DHT22;27613;48.116;11.656;2022-08-01T06:40:42;21.50;75.10
41924;DHT22;27613;48.116;11.656;2022-08-01T06:43:07;21.60;76.20
41924;DHT22;27613;48.116;11.656;2022-08-01T06:45:33;21.60;75.10
41924;DHT22;27613;48.116;11.656;2022-08-01T06:47:58;21.60;75.40
41924;DHT22;27613;48.116;11.656;2022-08-01T06:50:24;21.60;75.50
41924;DHT22;27613;48.116;11.656;2022-08-01T06:52:50;21.70;75.20
41924;DHT22;27613;48.116;11.656;2022-08-01T06:55:15;21.80;75.00
41924;DHT22;27613;48.116;11.656;2022-08-01T06:57:49;21.80;74.30
41924;DHT22;27613;48.116;11.656;2022-08-01T07:00:16;21.80;74.60
41924;DHT22;27613;48.116;11.656;2022-08-01T07:02:44;21.90;75.60
41924;DHT22;27613;48.116;11.656;2022-08-01T07:05:11;22.00;74.60
41924;DHT22;27613;48.116;11.656;2022-08-01T07:07:37;22.00;74.30
41924;DHT22;27613;48.116;11.656;2022-08-01T07:10:03;22.10;74.10
41924;DHT22;27613;48.116;11.656;2022-08-01T07:12:29;22.10;74.40
41924;DHT22;27613;48.116;11.656;2022-08-01T07:14:54;22.10;74.10
41924;DHT22;27613;48.116;11.656;2022-08-01T07:17:20;22.20;74.40
41924;DHT22;27613;48.116;11.656;2022-08-01T07:19:46;22.20;74.00
41924;DHT22;27613;48.116;11.656;2022-08-01T07:22:12;22.20;73.60
41924;DHT22;27613;48.116;11.656;2022-08-01T07:24:39;22.20;74.10
41924;DHT22;27613;48.116;11.656;2022-08-01T07:27:05;22.20;74.40
41924;DHT22;27613;48.116;11.656;2022-08-01T07:29:31;22.30;74.10
41924;DHT22;27613;48.116;11.656;2022-08-01T07:31:57;22.40;74.10
41924;DHT22;27613;48.116;11.656;2022-08-01T07:34:24;22.40;74.40
41924;DHT22;27613;48.116;11.656;2022-08-01T07:36:51;22.50;73.80
41924;DHT22;27613;48.116;11.656;2022-08-01T07:39:17;22.60;74.00
41924;DHT22;27613;48.116;11.656;2022-08-01T07:41:42;22.70;73.40
41924;DHT22;27613;48.116;11.656;2022-08-01T07:44:08;22.70;73.50
41924;DHT22;27613;48.116;11.656;2022-08-01T07:46:33;22.80;73.20
41924;DHT22;27613;48.116;11.656;2022-08-01T07:48:59;22.80;72.80
41924;DHT22;27613;48.116;11.656;2022-08-01T07:51:24;22.80;73.00
41924;DHT22;27613;48.116;11.656;2022-08-01T07:53:50;22.90;73.50
41924;DHT22;27613;48.116;11.656;2022-08-01T07:56:16;22.90;73.10
41924;DHT22;27613;48.116;11.656;2022-08-01T07:58:41;23.00;72.30
41924;DHT22;27613;48.116;11.656;2022-08-01T08:01:07;23.00;72.20
41924;DHT22;27613;48.116;11.656;2022-08-01T08:03:33;23.10;72.90
41924;DHT22;27613;48.116;11.656;2022-08-01T08:05:58;23.30;72.00
41924;DHT22;27613;48.116;11.656;2022-08-01T08:08:24;23.20;72.30
41924;DHT22;27613;48.116;11.656;2022-08-01T08:10:49;23.30;71.30
41924;DHT22;27613;48.116;11.656;2022-08-01T08:13:15;23.30;72.30
41924;DHT22;27613;48.116;11.656;2022-08-01T08:15:41;23.30;72.20
41924;DHT22;27613;48.116;11.656;2022-08-01T08:18:06;23.40;72.60
41924;DHT22;27613;48.116;11.656;2022-08-01T08:20:32;23.50;71.70
41924;DHT22;27613;48.116;11.656;2022-08-01T08:22:58;23.50;72.10
41924;DHT22;27613;48.116;11.656;2022-08-01T08:25:24;23.60;71.50
41924;DHT22;27613;48.116;11.656;2022-08-01T08:27:50;23.70;70.90
41924;DHT22;27613;48.116;11.656;2022-08-01T08:30:16;23.70;70.60
41924;DHT22;27613;48.116;11.656;2022-08-01T08:32:42;23.60;70.60
41924;DHT22;27613;48.116;11.656;2022-08-01T08:35:08;23.70;70.90
41924;DHT22;27613;48.116;11.656;2022-08-01T08:37:35;23.80;70.20
41924;DHT22;27613;48.116;11.656;2022-08-01T08:40:01;23.80;70.00
41924;DHT22;27613;48.116;11.656;2022-08-01T08:42:26;23.90;70.00
41924;DHT22;27613;48.116;11.656;2022-08-01T08:44:52;23.90;70.20
41924;DHT22;27613;48.116;11.656;2022-08-01T08:47:21;24.20;69.40
41924;DHT22;27613;48.116;11.656;2022-08-01T08:49:49;24.20;69.90
41924;DHT22;27613;48.116;11.656;2022-08-01T08:52:15;24.40;69.50
41924;DHT22;27613;48.116;11.656;2022-08-01T08:54:43;24.60;68.70
41924;DHT22;27613;48.116;11.656;2022-08-01T08:57:10;24.70;67.70
41924;DHT22;27613;48.116;11.656;2022-08-01T08:59:38;24.70;67.30
41924;DHT22;27613;48.116;11.656;2022-08-01T09:02:04;24.90;67.60
41924;DHT22;27613;48.116;11.656;2022-08-01T09:04:31;25.10;66.60
41924;DHT22;27613;48.116;11.656;2022-08-01T09:06:56;25.30;67.10
41924;DHT22;27613;48.116;11.656;2022-08-01T09:09:23;25.40;67.20
41924;DHT22;27613;48.116;11.656;2022-08-01T09:11:49;25.80;66.30
41924;DHT22;27613;48.116;11.656;2022-08-01T09:14:19;25.70;66.20
41924;DHT22;27613;48.116;11.656;2022-08-01T09:17:03;26.20;65.00
41924;DHT22;27613;48.116;11.656;2022-08-01T09:19:43;26.60;66.00
41924;DHT22;27613;48.116;11.656;2022-08-01T09:22:14;27.30;62.00
41924;DHT22;27613;48.116;11.656;2022-08-01T09:25:04;27.60;61.30
41924;DHT22;27613;48.116;11.656;2022-08-01T09:27:30;28.30;59.60
41924;DHT22;27613;48.116;11.656;2022-08-01T09:32:35;28.70;59.20
41924;DHT22;27613;48.116;11.656;2022-08-01T09:35:21;29.20;57.20
41924;DHT22;27613;48.116;11.656;2022-08-01T09:37:47;28.70;57.00
41924;DHT22;27613;48.116;11.656;2022-08-01T09:40:12;29.50;56.40
41924;DHT22;27613;48.116;11.656;2022-08-01T09:42:38;29.40;56.90
41924;DHT22;27613;48.116;11.656;2022-08-01T09:45:04;30.20;55.20
41924;DHT22;27613;48.116;11.656;2022-08-01T09:47:39;30.20;55.20
41924;DHT22;27613;48.116;11.656;2022-08-01T09:50:06;30.80;53.40
41924;DHT22;27613;48.116;11.656;2022-08-01T09:52:32;30.80;53.80
41924;DHT22;27613;48.116;11.656;2022-08-01T09:55:00;31.10;52.60
41924;DHT22;27613;48.116;11.656;2022-08-01T09:57:27;29.40;55.80
41924;DHT22;27613;48.116;11.656;2022-08-01T09:59:58;30.30;55.40
41924;DHT22;27613;48.116;11.656;2022-08-01T10:02:38;30.20;55.50
41924;DHT22;27613;48.116;11.656;2022-08-01T10:05:07;32.40;52.00
41924;DHT22;27613;48.116;11.656;2022-08-01T10:07:33;32.10;52.70
41924;DHT22;27613;48.116;11.656;2022-08-01T10:10:12;31.90;52.00
41924;DHT22;27613;48.116;11.656;2022-08-01T10:12:41;32.00;52.20
41924;DHT22;27613;48.116;11.656;2022-08-01T10:15:08;31.90;51.40
41924;DHT22;27613;48.116;11.656;2022-08-01T10:17:34;32.70;50.20
41924;DHT22;27613;48.116;11.656;2022-08-01T10:20:02;32.30;50.60
41924;DHT22;27613;48.116;11.656;2022-08-01T10:22:31;33.30;50.20
41924;DHT22;27613;48.116;11.656;2022-08-01T10:24:57;33.50;50.20
41924;DHT22;27613;48.116;11.656;2022-08-01T10:27:29;32.90;50.00
41924;DHT22;27613;48.116;11.656;2022-08-01T10:29:59;31.60;52.20
41924;DHT22;27613;48.116;11.656;2022-08-01T10:32:34;33.00;50.60
41924;DHT22;27613;48.116;11.656;2022-08-01T10:35:06;34.00;49.80
41924;DHT22;27613;48.116;11.656;2022-08-01T10:37:34;33.70;48.00
41924;DHT22;27613;48.116;11.656;2022-08-01T10:40:00;33.90;49.20
41924;DHT22;27613;48.116;11.656;2022-08-01T10:42:26;34.10;47.90
41924;DHT22;27613;48.116;11.656;2022-08-01T10:44:54;34.30;48.00
41924;DHT22;27613;48.116;11.656;2022-08-01T10:47:55;32.40;48.40
41924;DHT22;27613;48.116;11.656;2022-08-01T10:50:43;33.90;47.60
41924;DHT22;27613;48.116;11.656;2022-08-01T10:53:13;33.90;49.40
41924;DHT22;27613;48.116;11.656;2022-08-01T10:55:46;35.50;45.90
41924;DHT22;27613;48.116;11.656;2022-08-01T10:58:12;34.70;46.40
41924;DHT22;27613;48.116;11.656;2022-08-01T11:00:38;36.00;46.80
41924;DHT22;27613;48.116;11.656;2022-08-01T11:03:04;35.60;45.20
41924;DHT22;27613;48.116;11.656;2022-08-01T11:05:34;35.60;45.30
41924;DHT22;27613;48.116;11.656;2022-08-01T11:08:10;34.10;46.30
41924;DHT22;27613;48.116;11.656;2022-08-01T11:10:40;34.40;48.70
41924;DHT22;27613;48.116;11.656;2022-08-01T11:13:06;35.30;47.10
41924;DHT22;27613;48.116;11.656;2022-08-01T11:15:37;35.00;47.20
41924;DHT22;27613;48.116;11.656;2022-08-01T11:20:59;36.40;45.20
41924;DHT22;27613;48.116;11.656;2022-08-01T11:23:30;36.10;45.30
41924;DHT22;27613;48.116;11.656;2022-08-01T11:28:27;35.80;45.50
41924;DHT22;27613;48.116;11.656;2022-08-01T11:31:24;37.80;44.30
41924;DHT22;27613;48.116;11.656;2022-08-01T11:38:39;39.00;42.10
41924;DHT22;27613;48.116;11.656;2022-08-01T11:41:30;37.40;42.40
41924;DHT22;27613;48.116;11.656;2022-08-01T11:52:29;34.50;45.60
41924;DHT22;27613;48.116;11.656;2022-08-01T11:55:07;36.50;44.40
41924;DHT22;27613;48.116;11.656;2022-08-01T11:57:33;37.70;42.70
41924;DHT22;27613;48.116;11.656;2022-08-01T12:00:18;37.00;43.70
41924;DHT22;27613;48.116;11.656;2022-08-01T12:02:45;35.60;44.60
41924;DHT22;27613;48.116;11.656;2022-08-01T12:05:13;34.30;45.30
41924;DHT22;27613;48.116;11.656;2022-08-01T12:07:41;34.10;46.50
41924;DHT22;27613;48.116;11.656;2022-08-01T12:10:16;35.40;45.40
41924;DHT22;27613;48.116;11.656;2022-08-01T12:15:14;35.10;43.30
41924;DHT22;27613;48.116;11.656;2022-08-01T12:17:45;33.50;45.90
41924;DHT22;27613;48.116;11.656;2022-08-01T12:20:14;33.40;46.30
41924;DHT22;27613;48.116;11.656;2022-08-01T12:22:41;33.80;44.80
41924;DHT22;27613;48.116;11.656;2022-08-01T12:25:11;33.50;46.00
41924;DHT22;27613;48.116;11.656;2022-08-01T12:27:38;33.60;45.90
41924;DHT22;27613;48.116;11.656;2022-08-01T12:30:09;34.10;45.70
41924;DHT22;27613;48.116;11.656;2022-08-01T12:32:38;33.60;44.50
41924;DHT22;27613;48.116;11.656;2022-08-01T12:35:06;32.70;45.90
41924;DHT22;27613;48.116;11.656;2022-08-01T12:37:38;34.00;45.40
41924;DHT22;27613;48.116;11.656;2022-08-01T12:40:14;35.30;44.40
41924;DHT22;27613;48.116;11.656;2022-08-01T12:42:43;36.50;41.20
41924;DHT22;27613;48.116;11.656;2022-08-01T12:45:10;35.80;42.20
41924;DHT22;27613;48.116;11.656;2022-08-01T12:47:37;36.40;42.90
41924;DHT22;27613;48.116;11.656;2022-08-01T12:50:06;36.50;41.70
41924;DHT22;27613;48.116;11.656;2022-08-01T12:52:33;36.70;41.50
41924;DHT22;27613;48.116;11.656;2022-08-01T12:55:15;35.60;41.80
41924;DHT22;27613;48.116;11.656;2022-08-01T12:57:43;34.70;42.80
41924;DHT22;27613;48.116;11.656;2022-08-01T13:02:45;34.40;43.70
41924;DHT22;27613;48.116;11.656;2022-08-01T13:05:12;34.20;45.00
41924;DHT22;27613;48.116;11.656;2022-08-01T13:07:49;35.20;45.70
41924;DHT22;27613;48.116;11.656;2022-08-01T13:10:28;36.30;46.90
41924;DHT22;27613;48.116;11.656;2022-08-01T13:12:58;35.90;44.40
41924;DHT22;27613;48.116;11.656;2022-08-01T13:15:27;35.10;46.80
41924;DHT22;27613;48.116;11.656;2022-08-01T13:17:54;35.20;46.10
41924;DHT22;27613;48.116;11.656;2022-08-01T13:20:24;33.90;45.90
41924;DHT22;27613;48.116;11.656;2022-08-01T13:22:50;33.00;46.90
41924;DHT22;27613;48.116;11.656;2022-08-01T13:25:17;32.70;47.70
41924;DHT22;27613;48.116;11.656;2022-08-01T13:27:43;32.60;49.30
41924;DHT22;27613;48.116;11.656;2022-08-01T13:30:17;31.70;47.70
41924;DHT22;27613;48.116;11.656;2022-08-01T13:32:44;31.20;50.20
41924;DHT22;27613;48.116;11.656;2022-08-01T13:35:22;30.90;50.30
41924;DHT22;27613;48.116;11.656;2022-08-01T13:37:47;30.40;51.70
41924;DHT22;27613;48.116;11.656;2022-08-01T13:40:26;30.20;53.20
41924;DHT22;27613;48.116;11.656;2022-08-01T13:42:53;30.00;54.20
41924;DHT22;27613;48.116;11.656;2022-08-01T13:45:19;29.60;54.20
41924;DHT22;27613;48.116;11.656;2022-08-01T13:47:45;30.00;54.20
41924;DHT22;27613;48.116;11.656;2022-08-01T13:50:10;30.20;53.20
41924;DHT22;27613;48.116;11.656;2022-08-01T13:52:36;30.40;50.70
41924;DHT22;27613;48.116;11.656;2022-08-01T13:55:02;30.60;50.40
41924;DHT22;27613;48.116;11.656;2022-08-01T13:57:28;30.90;50.60
41924;DHT22;27613;48.116;11.656;2022-08-01T13:59:54;31.00;51.10
41924;DHT22;27613;48.116;11.656;2022-08-01T14:02:20;31.00;51.20
41924;DHT22;27613;48.116;11.656;2022-08-01T14:04:46;30.70;51.30
41924;DHT22;27613;48.116;11.656;2022-08-01T14:07:12;30.50;51.10
41924;DHT22;27613;48.116;11.656;2022-08-01T14:09:37;30.50;51.70
41924;DHT22;27613;48.116;11.656;2022-08-01T14:12:03;30.30;50.30
41924;DHT22;27613;48.116;11.656;2022-08-01T14:14:29;30.10;50.20
41924;DHT22;27613;48.116;11.656;2022-08-01T14:16:55;30.20;50.20
41924;DHT22;27613;48.116;11.656;2022-08-01T14:19:21;30.00;50.30
41924;DHT22;27613;48.116;11.656;2022-08-01T14:21:47;29.80;50.50
41924;DHT22;27613;48.116;11.656;2022-08-01T14:24:12;29.60;51.10
41924;DHT22;27613;48.116;11.656;2022-08-01T14:26:38;29.80;51.10
41924;DHT22;27613;48.116;11.656;2022-08-01T14:29:04;29.50;50.60
41924;DHT22;27613;48.116;11.656;2022-08-01T14:31:29;29.50;51.00
41924;DHT22;27613;48.116;11.656;2022-08-01T14:33:55;29.10;52.30
41924;DHT22;27613;48.116;11.656;2022-08-01T14:36:21;28.70;53.90
41924;DHT22;27613;48.116;11.656;2022-08-01T14:38:47;28.60;53.10
41924;DHT22;27613;48.116;11.656;2022-08-01T14:41:16;28.40;52.90
41924;DHT22;27613;48.116;11.656;2022-08-01T14:43:41;28.40;53.00
41924;DHT22;27613;48.116;11.656;2022-08-01T14:46:07;28.60;53.00
41924;DHT22;27613;48.116;11.656;2022-08-01T14:48:35;28.40;54.40
41924;DHT22;27613;48.116;11.656;2022-08-01T14:51:00;28.60;54.10
41924;DHT22;27613;48.116;11.656;2022-08-01T14:53:30;28.30;54.80
41924;DHT22;27613;48.116;11.656;2022-08-01T14:55:55;28.30;55.00
41924;DHT22;27613;48.116;11.656;2022-08-01T14:58:21;28.30;55.60
41924;DHT22;27613;48.116;11.656;2022-08-01T15:00:47;28.00;56.20
41924;DHT22;27613;48.116;11.656;2022-08-01T15:03:12;28.00;56.40
41924;DHT22;27613;48.116;11.656;2022-08-01T15:05:38;28.20;56.20
41924;DHT22;27613;48.116;11.656;2022-08-01T15:08:05;28.10;56.80
41924;DHT22;27613;48.116;11.656;2022-08-01T15:10:31;28.20;57.00
41924;DHT22;27613;48.116;11.656;2022-08-01T15:12:58;28.10;56.70
41924;DHT22;27613;48.116;11.656;2022-08-01T15:15:26;28.10;56.40
41924;DHT22;27613;48.116;11.656;2022-08-01T15:17:51;27.90;57.40
41924;DHT22;27613;48.116;11.656;2022-08-01T15:20:18;27.80;57.70
41924;DHT22;27613;48.116;11.656;2022-08-01T15:22:43;27.70;58.00
41924;DHT22;27613;48.116;11.656;2022-08-01T15:25:09;27.60;58.50
41924;DHT22;27613;48.116;11.656;2022-08-01T15:27:35;27.60;59.20
41924;DHT22;27613;48.116;11.656;2022-08-01T15:30:01;27.60;59.50
41924;DHT22;27613;48.116;11.656;2022-08-01T15:32:27;27.40;60.00
41924;DHT22;27613;48.116;11.656;2022-08-01T15:34:53;27.20;60.30
41924;DHT22;27613;48.116;11.656;2022-08-01T15:37:19;27.10;60.30
41924;DHT22;27613;48.116;11.656;2022-08-01T15:39:45;26.90;60.90
41924;DHT22;27613;48.116;11.656;2022-08-01T15:42:13;26.60;61.50
41924;DHT22;27613;48.116;11.656;2022-08-01T15:44:39;26.50;62.50
41924;DHT22;27613;48.116;11.656;2022-08-01T15:47:06;26.40;63.50
41924;DHT22;27613;48.116;11.656;2022-08-01T15:49:32;26.40;65.60
41924;DHT22;27613;48.116;11.656;2022-08-01T15:51:58;26.40;66.20
41924;DHT22;27613;48.116;11.656;2022-08-01T15:54:23;26.00;65.90
41924;DHT22;27613;48.116;11.656;2022-08-01T15:56:49;26.10;66.70
41924;DHT22;27613;48.116;11.656;2022-08-01T15:59:15;25.80;67.00
41924;DHT22;27613;48.116;11.656;2022-08-01T16:01:40;25.80;67.70
41924;DHT22;27613;48.116;11.656;2022-08-01T16:04:07;25.60;68.30